sensor_id;sensor_type;location;lat;lon;timestamp;P1;durP1;ratioP1;P2;durP2;ratioP2
37091;SDS011;23005;51.998;4.502;2023-01-24T00:00:54;45.75;;;29.13;;
37091;SDS011;23005;51.998;4.502;2023-01-24T00:02:15;46.85;;;29.80;;
37091;SDS011;23005;51.998;4.502;2023-01-24T00:03:36;44.20;;;28.92;;
37091;SDS011;23005;51.998;4.502;2023-01-24T00:04:56;46.30;;;30.10;;
37091;SDS011;23005;51.998;4.502;2023-01-24T00:06:17;44.30;;;29.63;;
37091;SDS011;23005;51.998;4.502;2023-01-24T00:07:38;46.35;;;30.77;;
37091;SDS011;23005;51.998;4.502;2023-01-24T00:08:59;43.63;;;28.35;;
37091;SDS011;23005;51.998;4.502;2023-01-24T00:10:19;47.00;;;30.00;;
37091;SDS011;23005;51.998;4.502;2023-01-24T00:11:40;48.00;;;29.30;;
37091;SDS011;23005;51.998;4.502;2023-01-24T00:13:01;42.57;;;28.23;;
37091;SDS011;23005;51.998;4.502;2023-01-24T00:14:22;42.50;;;28.38;;
37091;SDS011;23005;51.998;4.502;2023-01-24T00:15:44;45.70;;;29.33;;
37091;SDS011;23005;51.998;4.502;2023-01-24T00:17:04;45.70;;;28.85;;
37091;SDS011;23005;51.998;4.502;2023-01-24T00:18:25;47.42;;;30.67;;
37091;SDS011;23005;51.998;4.502;2023-01-24T00:19:46;47.13;;;30.17;;
37091;SDS011;23005;51.998;4.502;2023-01-24T00:21:07;43.17;;;28.95;;
37091;SDS011;23005;51.998;4.502;2023-01-24T00:22:29;38.95;;;27.10;;
37091;SDS011;23005;51.998;4.502;2023-01-24T00:23:50;45.60;;;29.15;;
37091;SDS011;23005;51.998;4.502;2023-01-24T00:25:11;46.05;;;29.65;;
37091;SDS011;23005;51.998;4.502;2023-01-24T00:26:32;42.55;;;28.77;;
37091;SDS011;23005;51.998;4.502;2023-01-24T00:27:53;43.10;;;28.35;;
37091;SDS011;23005;51.998;4.502;2023-01-24T00:29:14;42.08;;;28.70;;
37091;SDS011;23005;51.998;4.502;2023-01-24T00:30:34;41.85;;;27.15;;
37091;SDS011;23005;51.998;4.502;2023-01-24T00:31:56;45.88;;;29.58;;
37091;SDS011;23005;51.998;4.502;2023-01-24T00:33:17;42.50;;;27.67;;
37091;SDS011;23005;51.998;4.502;2023-01-24T00:34:38;42.03;;;27.63;;
37091;SDS011;23005;51.998;4.502;2023-01-24T00:35:58;43.30;;;27.27;;
37091;SDS011;23005;51.998;4.502;2023-01-24T00:37:19;44.33;;;28.85;;
37091;SDS011;23005;51.998;4.502;2023-01-24T00:38:40;46.85;;;28.95;;
37091;SDS011;23005;51.998;4.502;2023-01-24T00:40:00;44.72;;;28.73;;
37091;SDS011;23005;51.998;4.502;2023-01-24T00:41:21;44.38;;;28.05;;
37091;SDS011;23005;51.998;4.502;2023-01-24T00:42:41;43.95;;;28.30;;
37091;SDS011;23005;51.998;4.502;2023-01-24T00:44:02;44.42;;;28.88;;
37091;SDS011;23005;51.998;4.502;2023-01-24T00:45:23;46.67;;;28.80;;
37091;SDS011;23005;51.998;4.502;2023-01-24T00:46:43;47.97;;;30.17;;
37091;SDS011;23005;51.998;4.502;2023-01-24T00:48:05;46.42;;;29.80;;
37091;SDS011;23005;51.998;4.502;2023-01-24T00:49:27;44.20;;;29.70;;
37091;SDS011;23005;51.998;4.502;2023-01-24T00:50:48;46.08;;;29.50;;
37091;SDS011;23005;51.998;4.502;2023-01-24T00:52:09;46.08;;;29.33;;
37091;SDS011;23005;51.998;4.502;2023-01-24T00:53:30;45.90;;;29.65;;
37091;SDS011;23005;51.998;4.502;2023-01-24T00:54:50;47.70;;;30.93;;
37091;SDS011;23005;51.998;4.502;2023-01-24T00:56:11;43.08;;;28.98;;
37091;SDS011;23005;51.998;4.502;2023-01-24T00:57:32;45.63;;;30.15;;
37091;SDS011;23005;51.998;4.502;2023-01-24T00:58:52;47.40;;;30.02;;
37091;SDS011;23005;51.998;4.502;2023-01-24T01:01:34;49.42;;;29.67;;
37091;SDS011;23005;51.998;4.502;2023-01-24T01:02:55;45.50;;;28.85;;
37091;SDS011;23005;51.998;4.502;2023-01-24T01:04:17;45.30;;;29.27;;
37091;SDS011;23005;51.998;4.502;2023-01-24T01:05:37;40.47;;;27.10;;
37091;SDS011;23005;51.998;4.502;2023-01-24T01:06:58;45.33;;;28.08;;
37091;SDS011;23005;51.998;4.502;2023-01-24T01:08:19;43.53;;;27.83;;
37091;SDS011;23005;51.998;4.502;2023-01-24T01:09:39;51.00;;;29.08;;
37091;SDS011;23005;51.998;4.502;2023-01-24T01:11:00;45.03;;;29.08;;
37091;SDS011;23005;51.998;4.502;2023-01-24T01:12:21;47.65;;;30.02;;
37091;SDS011;23005;51.998;4.502;2023-01-24T01:13:41;49.50;;;31.05;;
37091;SDS011;23005;51.998;4.502;2023-01-24T01:15:02;46.05;;;29.02;;
37091;SDS011;23005;51.998;4.502;2023-01-24T01:16:24;47.67;;;30.02;;
37091;SDS011;23005;51.998;4.502;2023-01-24T01:17:45;46.00;;;30.13;;
37091;SDS011;23005;51.998;4.502;2023-01-24T01:19:05;46.78;;;30.15;;
37091;SDS011;23005;51.998;4.502;2023-01-24T01:20:27;46.30;;;30.25;;
37091;SDS011;23005;51.998;4.502;2023-01-24T01:21:48;48.17;;;31.30;;
37091;SDS011;23005;51.998;4.502;2023-01-24T01:23:09;46.00;;;29.60;;
37091;SDS011;23005;51.998;4.502;2023-01-24T01:24:29;49.28;;;31.10;;
37091;SDS011;23005;51.998;4.502;2023-01-24T01:25:50;44.45;;;28.45;;
37091;SDS011;23005;51.998;4.502;2023-01-24T01:27:11;44.53;;;28.88;;
37091;SDS011;23005;51.998;4.502;2023-01-24T01:28:32;47.38;;;29.73;;
37091;SDS011;23005;51.998;4.502;2023-01-24T01:29:52;46.28;;;30.27;;
37091;SDS011;23005;51.998;4.502;2023-01-24T01:31:13;45.20;;;30.10;;
37091;SDS011;23005;51.998;4.502;2023-01-24T01:32:34;46.90;;;30.88;;
37091;SDS011;23005;51.998;4.502;2023-01-24T01:33:54;46.22;;;30.38;;
37091;SDS011;23005;51.998;4.502;2023-01-24T01:35:16;44.90;;;29.45;;
37091;SDS011;23005;51.998;4.502;2023-01-24T01:36:38;45.78;;;29.52;;
37091;SDS011;23005;51.998;4.502;2023-01-24T01:37:59;46.08;;;29.33;;
37091;SDS011;23005;51.998;4.502;2023-01-24T01:39:20;49.92;;;31.08;;
37091;SDS011;23005;51.998;4.502;2023-01-24T01:40:40;47.97;;;29.67;;
37091;SDS011;23005;51.998;4.502;2023-01-24T01:42:01;47.20;;;30.38;;
37091;SDS011;23005;51.998;4.502;2023-01-24T01:43:22;47.47;;;30.15;;
37091;SDS011;23005;51.998;4.502;2023-01-24T01:44:45;49.65;;;31.77;;
37091;SDS011;23005;51.998;4.502;2023-01-24T01:46:08;43.05;;;29.30;;
37091;SDS011;23005;51.998;4.502;2023-01-24T01:47:37;43.72;;;29.23;;
37091;SDS011;23005;51.998;4.502;2023-01-24T01:49:00;45.67;;;29.73;;
37091;SDS011;23005;51.998;4.502;2023-01-24T01:50:23;46.20;;;29.83;;
37091;SDS011;23005;51.998;4.502;2023-01-24T01:51:49;47.17;;;31.27;;
37091;SDS011;23005;51.998;4.502;2023-01-24T01:53:12;45.92;;;30.15;;
37091;SDS011;23005;51.998;4.502;2023-01-24T01:54:34;50.08;;;32.60;;
37091;SDS011;23005;51.998;4.502;2023-01-24T01:55:57;47.70;;;31.30;;
37091;SDS011;23005;51.998;4.502;2023-01-24T01:57:22;46.60;;;30.50;;
37091;SDS011;23005;51.998;4.502;2023-01-24T01:58:45;47.75;;;31.33;;
37091;SDS011;23005;51.998;4.502;2023-01-24T02:00:07;44.03;;;29.08;;
37091;SDS011;23005;51.998;4.502;2023-01-24T02:01:31;45.33;;;29.27;;
37091;SDS011;23005;51.998;4.502;2023-01-24T02:02:54;47.67;;;29.88;;
37091;SDS011;23005;51.998;4.502;2023-01-24T02:04:18;46.08;;;30.75;;
37091;SDS011;23005;51.998;4.502;2023-01-24T02:05:40;45.45;;;30.52;;
37091;SDS011;23005;51.998;4.502;2023-01-24T02:07:03;46.35;;;30.05;;
37091;SDS011;23005;51.998;4.502;2023-01-24T02:08:25;43.75;;;28.30;;
37091;SDS011;23005;51.998;4.502;2023-01-24T02:09:47;41.40;;;27.73;;
37091;SDS011;23005;51.998;4.502;2023-01-24T02:11:09;42.20;;;27.48;;
37091;SDS011;23005;51.998;4.502;2023-01-24T02:13:52;42.65;;;27.52;;
37091;SDS011;23005;51.998;4.502;2023-01-24T02:15:14;43.45;;;28.50;;
37091;SDS011;23005;51.998;4.502;2023-01-24T02:16:35;42.10;;;27.95;;
37091;SDS011;23005;51.998;4.502;2023-01-24T02:17:56;43.80;;;27.83;;
37091;SDS011;23005;51.998;4.502;2023-01-24T02:19:20;40.53;;;26.33;;
37091;SDS011;23005;51.998;4.502;2023-01-24T02:20:48;40.60;;;27.05;;
37091;SDS011;23005;51.998;4.502;2023-01-24T02:22:15;44.50;;;28.75;;
37091;SDS011;23005;51.998;4.502;2023-01-24T02:23:39;42.50;;;27.83;;
37091;SDS011;23005;51.998;4.502;2023-01-24T02:25:06;43.50;;;27.13;;
37091;SDS011;23005;51.998;4.502;2023-01-24T02:26:32;38.28;;;26.40;;
37091;SDS011;23005;51.998;4.502;2023-01-24T02:27:52;42.00;;;27.45;;
37091;SDS011;23005;51.998;4.502;2023-01-24T02:29:13;41.60;;;26.63;;
37091;SDS011;23005;51.998;4.502;2023-01-24T02:30:35;39.80;;;26.70;;
37091;SDS011;23005;51.998;4.502;2023-01-24T02:31:57;45.13;;;26.83;;
37091;SDS011;23005;51.998;4.502;2023-01-24T02:33:19;37.95;;;25.33;;
37091;SDS011;23005;51.998;4.502;2023-01-24T02:34:39;37.65;;;25.25;;
37091;SDS011;23005;51.998;4.502;2023-01-24T02:36:11;37.72;;;25.63;;
37091;SDS011;23005;51.998;4.502;2023-01-24T02:37:34;37.75;;;25.40;;
37091;SDS011;23005;51.998;4.502;2023-01-24T02:38:57;39.77;;;25.23;;
37091;SDS011;23005;51.998;4.502;2023-01-24T02:40:20;38.42;;;26.25;;
37091;SDS011;23005;51.998;4.502;2023-01-24T02:41:43;43.63;;;27.45;;
37091;SDS011;23005;51.998;4.502;2023-01-24T02:43:04;41.15;;;27.27;;
37091;SDS011;23005;51.998;4.502;2023-01-24T02:45:48;43.65;;;26.90;;
37091;SDS011;23005;51.998;4.502;2023-01-24T02:47:09;40.65;;;27.20;;
37091;SDS011;23005;51.998;4.502;2023-01-24T02:48:29;41.95;;;27.95;;
37091;SDS011;23005;51.998;4.502;2023-01-24T02:49:50;39.67;;;27.05;;
37091;SDS011;23005;51.998;4.502;2023-01-24T02:51:10;40.08;;;26.70;;
37091;SDS011;23005;51.998;4.502;2023-01-24T02:52:31;41.90;;;28.00;;
37091;SDS011;23005;51.998;4.502;2023-01-24T02:53:52;40.75;;;27.75;;
37091;SDS011;23005;51.998;4.502;2023-01-24T02:55:12;41.92;;;27.50;;
37091;SDS011;23005;51.998;4.502;2023-01-24T02:56:33;41.05;;;27.35;;
37091;SDS011;23005;51.998;4.502;2023-01-24T02:57:55;41.75;;;27.17;;
37091;SDS011;23005;51.998;4.502;2023-01-24T02:59:16;42.97;;;27.00;;
37091;SDS011;23005;51.998;4.502;2023-01-24T03:00:37;42.60;;;27.20;;
37091;SDS011;23005;51.998;4.502;2023-01-24T03:01:58;42.72;;;28.27;;
37091;SDS011;23005;51.998;4.502;2023-01-24T03:03:19;42.00;;;27.38;;
37091;SDS011;23005;51.998;4.502;2023-01-24T03:04:39;43.30;;;28.42;;
37091;SDS011;23005;51.998;4.502;2023-01-24T03:05:59;40.30;;;27.58;;
37091;SDS011;23005;51.998;4.502;2023-01-24T03:07:20;42.28;;;28.23;;
37091;SDS011;23005;51.998;4.502;2023-01-24T03:08:40;42.15;;;27.50;;
37091;SDS011;23005;51.998;4.502;2023-01-24T03:10:01;42.28;;;28.23;;
37091;SDS011;23005;51.998;4.502;2023-01-24T03:11:22;41.97;;;27.52;;
37091;SDS011;23005;51.998;4.502;2023-01-24T03:12:43;42.97;;;28.17;;
37091;SDS011;23005;51.998;4.502;2023-01-24T03:14:05;45.08;;;29.13;;
37091;SDS011;23005;51.998;4.502;2023-01-24T03:15:26;42.30;;;29.00;;
37091;SDS011;23005;51.998;4.502;2023-01-24T03:16:46;44.43;;;28.70;;
37091;SDS011;23005;51.998;4.502;2023-01-24T03:18:07;45.93;;;28.17;;
37091;SDS011;23005;51.998;4.502;2023-01-24T03:19:27;44.00;;;28.60;;
37091;SDS011;23005;51.998;4.502;2023-01-24T03:20:48;45.85;;;29.33;;
37091;SDS011;23005;51.998;4.502;2023-01-24T03:22:08;44.97;;;28.50;;
37091;SDS011;23005;51.998;4.502;2023-01-24T03:23:29;45.80;;;30.05;;
37091;SDS011;23005;51.998;4.502;2023-01-24T03:24:50;45.85;;;31.02;;
37091;SDS011;23005;51.998;4.502;2023-01-24T03:26:10;44.00;;;28.45;;
37091;SDS011;23005;51.998;4.502;2023-01-24T03:27:31;42.53;;;29.73;;
37091;SDS011;23005;51.998;4.502;2023-01-24T03:28:51;42.30;;;28.05;;
37091;SDS011;23005;51.998;4.502;2023-01-24T03:30:13;44.38;;;29.63;;
37091;SDS011;23005;51.998;4.502;2023-01-24T03:31:34;47.47;;;28.63;;
37091;SDS011;23005;51.998;4.502;2023-01-24T03:32:57;42.47;;;28.00;;
37091;SDS011;23005;51.998;4.502;2023-01-24T03:34:18;45.08;;;29.23;;
37091;SDS011;23005;51.998;4.502;2023-01-24T03:35:39;46.65;;;30.08;;
37091;SDS011;23005;51.998;4.502;2023-01-24T03:37:00;43.87;;;29.57;;
37091;SDS011;23005;51.998;4.502;2023-01-24T03:38:21;43.75;;;29.13;;
37091;SDS011;23005;51.998;4.502;2023-01-24T03:39:42;45.70;;;31.10;;
37091;SDS011;23005;51.998;4.502;2023-01-24T03:41:03;46.80;;;30.87;;
37091;SDS011;23005;51.998;4.502;2023-01-24T03:42:24;43.78;;;28.92;;
37091;SDS011;23005;51.998;4.502;2023-01-24T03:43:45;48.55;;;30.35;;
37091;SDS011;23005;51.998;4.502;2023-01-24T03:45:06;45.45;;;30.55;;
37091;SDS011;23005;51.998;4.502;2023-01-24T03:46:30;44.80;;;29.63;;
37091;SDS011;23005;51.998;4.502;2023-01-24T03:47:52;49.03;;;31.25;;
37091;SDS011;23005;51.998;4.502;2023-01-24T03:49:14;48.58;;;30.40;;
37091;SDS011;23005;51.998;4.502;2023-01-24T03:50:35;47.60;;;30.23;;
37091;SDS011;23005;51.998;4.502;2023-01-24T03:51:56;48.75;;;32.25;;
37091;SDS011;23005;51.998;4.502;2023-01-24T03:53:17;46.80;;;30.30;;
37091;SDS011;23005;51.998;4.502;2023-01-24T03:54:38;47.50;;;30.40;;
37091;SDS011;23005;51.998;4.502;2023-01-24T03:55:59;49.65;;;30.70;;
37091;SDS011;23005;51.998;4.502;2023-01-24T03:57:21;46.15;;;31.63;;
37091;SDS011;23005;51.998;4.502;2023-01-24T03:58:42;48.38;;;31.25;;
37091;SDS011;23005;51.998;4.502;2023-01-24T04:00:02;48.33;;;32.13;;
37091;SDS011;23005;51.998;4.502;2023-01-24T04:01:23;48.58;;;32.13;;
37091;SDS011;23005;51.998;4.502;2023-01-24T04:02:45;48.87;;;32.57;;
37091;SDS011;23005;51.998;4.502;2023-01-24T04:04:06;48.85;;;32.03;;
37091;SDS011;23005;51.998;4.502;2023-01-24T04:05:27;53.83;;;32.03;;
37091;SDS011;23005;51.998;4.502;2023-01-24T04:06:48;45.80;;;31.30;;
37091;SDS011;23005;51.998;4.502;2023-01-24T04:08:08;50.80;;;32.60;;
37091;SDS011;23005;51.998;4.502;2023-01-24T04:09:29;50.27;;;32.77;;
37091;SDS011;23005;51.998;4.502;2023-01-24T04:10:50;47.13;;;31.13;;
37091;SDS011;23005;51.998;4.502;2023-01-24T04:12:10;45.67;;;30.50;;
37091;SDS011;23005;51.998;4.502;2023-01-24T04:13:31;50.00;;;31.88;;
37091;SDS011;23005;51.998;4.502;2023-01-24T04:14:52;48.17;;;32.20;;
37091;SDS011;23005;51.998;4.502;2023-01-24T04:16:13;51.83;;;31.85;;
37091;SDS011;23005;51.998;4.502;2023-01-24T04:17:33;50.38;;;31.75;;
37091;SDS011;23005;51.998;4.502;2023-01-24T04:18:55;49.03;;;31.80;;
37091;SDS011;23005;51.998;4.502;2023-01-24T04:20:16;49.47;;;31.33;;
37091;SDS011;23005;51.998;4.502;2023-01-24T04:21:37;50.80;;;31.40;;
37091;SDS011;23005;51.998;4.502;2023-01-24T04:22:59;54.75;;;33.65;;
37091;SDS011;23005;51.998;4.502;2023-01-24T04:24:20;56.05;;;34.33;;
37091;SDS011;23005;51.998;4.502;2023-01-24T04:25:40;53.95;;;34.72;;
37091;SDS011;23005;51.998;4.502;2023-01-24T04:27:01;49.22;;;31.95;;
37091;SDS011;23005;51.998;4.502;2023-01-24T04:28:22;52.43;;;33.67;;
37091;SDS011;23005;51.998;4.502;2023-01-24T04:29:43;52.78;;;32.72;;
37091;SDS011;23005;51.998;4.502;2023-01-24T04:31:04;49.65;;;32.13;;
37091;SDS011;23005;51.998;4.502;2023-01-24T04:32:25;49.25;;;33.13;;
37091;SDS011;23005;51.998;4.502;2023-01-24T04:33:45;51.47;;;32.47;;
37091;SDS011;23005;51.998;4.502;2023-01-24T04:35:08;49.78;;;31.67;;
37091;SDS011;23005;51.998;4.502;2023-01-24T04:36:34;49.35;;;32.33;;
37091;SDS011;23005;51.998;4.502;2023-01-24T04:37:58;51.93;;;33.73;;
37091;SDS011;23005;51.998;4.502;2023-01-24T04:39:19;50.65;;;32.47;;
37091;SDS011;23005;51.998;4.502;2023-01-24T04:40:40;49.47;;;32.72;;
37091;SDS011;23005;51.998;4.502;2023-01-24T04:42:00;48.15;;;31.38;;
37091;SDS011;23005;51.998;4.502;2023-01-24T04:43:21;47.53;;;31.85;;
37091;SDS011;23005;51.998;4.502;2023-01-24T04:44:41;51.70;;;34.65;;
37091;SDS011;23005;51.998;4.502;2023-01-24T04:46:02;47.92;;;33.08;;
37091;SDS011;23005;51.998;4.502;2023-01-24T04:47:23;55.05;;;33.38;;
37091;SDS011;23005;51.998;4.502;2023-01-24T04:48:43;49.87;;;32.83;;
37091;SDS011;23005;51.998;4.502;2023-01-24T04:50:04;51.47;;;34.03;;
37091;SDS011;23005;51.998;4.502;2023-01-24T04:51:27;54.47;;;34.83;;
37091;SDS011;23005;51.998;4.502;2023-01-24T04:52:47;54.15;;;34.72;;
37091;SDS011;23005;51.998;4.502;2023-01-24T04:54:08;50.25;;;31.88;;
37091;SDS011;23005;51.998;4.502;2023-01-24T04:55:29;55.15;;;34.53;;
37091;SDS011;23005;51.998;4.502;2023-01-24T04:56:49;52.17;;;32.80;;
37091;SDS011;23005;51.998;4.502;2023-01-24T04:58:10;52.40;;;31.60;;
37091;SDS011;23005;51.998;4.502;2023-01-24T04:59:31;47.27;;;31.67;;
37091;SDS011;23005;51.998;4.502;2023-01-24T05:00:52;52.35;;;32.97;;
37091;SDS011;23005;51.998;4.502;2023-01-24T05:02:13;48.78;;;32.50;;
37091;SDS011;23005;51.998;4.502;2023-01-24T05:03:34;52.45;;;32.25;;
37091;SDS011;23005;51.998;4.502;2023-01-24T05:04:54;48.63;;;32.22;;
37091;SDS011;23005;51.998;4.502;2023-01-24T05:06:15;48.38;;;31.77;;
37091;SDS011;23005;51.998;4.502;2023-01-24T05:07:37;50.30;;;32.65;;
37091;SDS011;23005;51.998;4.502;2023-01-24T05:08:58;49.47;;;32.72;;
37091;SDS011;23005;51.998;4.502;2023-01-24T05:10:18;51.72;;;32.08;;
37091;SDS011;23005;51.998;4.502;2023-01-24T05:11:38;48.15;;;30.85;;
37091;SDS011;23005;51.998;4.502;2023-01-24T05:12:59;48.28;;;31.05;;
37091;SDS011;23005;51.998;4.502;2023-01-24T05:14:20;48.42;;;31.10;;
37091;SDS011;23005;51.998;4.502;2023-01-24T05:15:45;44.90;;;29.40;;
37091;SDS011;23005;51.998;4.502;2023-01-24T05:17:05;51.20;;;31.63;;
37091;SDS011;23005;51.998;4.502;2023-01-24T05:18:26;49.22;;;31.52;;
37091;SDS011;23005;51.998;4.502;2023-01-24T05:19:47;48.65;;;31.98;;
37091;SDS011;23005;51.998;4.502;2023-01-24T05:21:07;52.42;;;32.33;;
37091;SDS011;23005;51.998;4.502;2023-01-24T05:22:29;51.50;;;32.22;;
37091;SDS011;23005;51.998;4.502;2023-01-24T05:23:51;47.67;;;30.67;;
37091;SDS011;23005;51.998;4.502;2023-01-24T05:25:13;44.70;;;30.13;;
37091;SDS011;23005;51.998;4.502;2023-01-24T05:26:34;52.28;;;31.50;;
37091;SDS011;23005;51.998;4.502;2023-01-24T05:27:54;50.93;;;32.87;;
37091;SDS011;23005;51.998;4.502;2023-01-24T05:29:15;49.10;;;31.60;;
37091;SDS011;23005;51.998;4.502;2023-01-24T05:30:36;48.00;;;30.55;;
37091;SDS011;23005;51.998;4.502;2023-01-24T05:31:57;49.97;;;31.63;;
37091;SDS011;23005;51.998;4.502;2023-01-24T05:33:18;46.50;;;29.65;;
37091;SDS011;23005;51.998;4.502;2023-01-24T05:34:38;47.03;;;30.30;;
37091;SDS011;23005;51.998;4.502;2023-01-24T05:35:59;47.50;;;30.80;;
37091;SDS011;23005;51.998;4.502;2023-01-24T05:37:20;44.40;;;28.83;;
37091;SDS011;23005;51.998;4.502;2023-01-24T05:38:40;47.53;;;29.03;;
37091;SDS011;23005;51.998;4.502;2023-01-24T05:40:03;44.58;;;29.50;;
37091;SDS011;23005;51.998;4.502;2023-01-24T05:41:24;48.88;;;30.45;;
37091;SDS011;23005;51.998;4.502;2023-01-24T05:42:45;45.67;;;28.90;;
37091;SDS011;23005;51.998;4.502;2023-01-24T05:44:05;43.95;;;28.70;;
37091;SDS011;23005;51.998;4.502;2023-01-24T05:45:28;46.88;;;29.67;;
37091;SDS011;23005;51.998;4.502;2023-01-24T05:46:49;45.55;;;29.52;;
37091;SDS011;23005;51.998;4.502;2023-01-24T05:48:09;45.17;;;28.70;;
37091;SDS011;23005;51.998;4.502;2023-01-24T05:49:30;46.65;;;30.70;;
37091;SDS011;23005;51.998;4.502;2023-01-24T05:50:55;43.88;;;27.88;;
37091;SDS011;23005;51.998;4.502;2023-01-24T05:52:16;44.35;;;28.15;;
37091;SDS011;23005;51.998;4.502;2023-01-24T05:53:37;42.55;;;27.75;;
37091;SDS011;23005;51.998;4.502;2023-01-24T05:54:59;48.20;;;30.15;;
37091;SDS011;23005;51.998;4.502;2023-01-24T05:56:21;41.88;;;27.75;;
37091;SDS011;23005;51.998;4.502;2023-01-24T05:57:41;45.38;;;28.58;;
37091;SDS011;23005;51.998;4.502;2023-01-24T05:59:02;49.60;;;30.83;;
37091;SDS011;23005;51.998;4.502;2023-01-24T06:00:22;42.95;;;28.27;;
37091;SDS011;23005;51.998;4.502;2023-01-24T06:01:43;43.47;;;28.38;;
37091;SDS011;23005;51.998;4.502;2023-01-24T06:03:04;46.63;;;29.60;;
37091;SDS011;23005;51.998;4.502;2023-01-24T06:04:24;45.15;;;29.10;;
37091;SDS011;23005;51.998;4.502;2023-01-24T06:05:46;46.17;;;30.05;;
37091;SDS011;23005;51.998;4.502;2023-01-24T06:07:06;44.55;;;28.80;;
37091;SDS011;23005;51.998;4.502;2023-01-24T06:08:27;45.05;;;28.88;;
37091;SDS011;23005;51.998;4.502;2023-01-24T06:09:48;46.92;;;28.50;;
37091;SDS011;23005;51.998;4.502;2023-01-24T06:11:09;43.25;;;28.20;;
37091;SDS011;23005;51.998;4.502;2023-01-24T06:12:33;44.85;;;28.60;;
37091;SDS011;23005;51.998;4.502;2023-01-24T06:13:54;43.35;;;28.33;;
37091;SDS011;23005;51.998;4.502;2023-01-24T06:15:15;44.97;;;28.42;;
37091;SDS011;23005;51.998;4.502;2023-01-24T06:16:35;44.03;;;27.77;;
37091;SDS011;23005;51.998;4.502;2023-01-24T06:17:56;44.03;;;28.40;;
37091;SDS011;23005;51.998;4.502;2023-01-24T06:19:17;43.33;;;28.48;;
37091;SDS011;23005;51.998;4.502;2023-01-24T06:20:38;44.60;;;28.25;;
37091;SDS011;23005;51.998;4.502;2023-01-24T06:22:00;43.25;;;28.30;;
37091;SDS011;23005;51.998;4.502;2023-01-24T06:23:24;46.65;;;30.25;;
37091;SDS011;23005;51.998;4.502;2023-01-24T06:24:46;40.63;;;27.10;;
37091;SDS011;23005;51.998;4.502;2023-01-24T06:26:08;42.45;;;27.48;;
37091;SDS011;23005;51.998;4.502;2023-01-24T06:28:51;45.85;;;28.45;;
37091;SDS011;23005;51.998;4.502;2023-01-24T06:30:12;45.45;;;27.95;;
37091;SDS011;23005;51.998;4.502;2023-01-24T06:31:36;43.72;;;27.85;;
37091;SDS011;23005;51.998;4.502;2023-01-24T06:33:05;46.25;;;28.38;;
37091;SDS011;23005;51.998;4.502;2023-01-24T06:34:33;41.67;;;26.98;;
37091;SDS011;23005;51.998;4.502;2023-01-24T06:37:50;45.85;;;27.92;;
37091;SDS011;23005;51.998;4.502;2023-01-24T06:39:12;49.60;;;30.42;;
37091;SDS011;23005;51.998;4.502;2023-01-24T06:40:34;43.03;;;27.23;;
37091;SDS011;23005;51.998;4.502;2023-01-24T06:41:55;47.13;;;30.27;;
37091;SDS011;23005;51.998;4.502;2023-01-24T06:43:17;45.28;;;28.35;;
37091;SDS011;23005;51.998;4.502;2023-01-24T06:44:39;45.60;;;29.65;;
37091;SDS011;23005;51.998;4.502;2023-01-24T06:46:00;43.97;;;29.00;;
37091;SDS011;23005;51.998;4.502;2023-01-24T06:47:20;46.07;;;27.17;;
37091;SDS011;23005;51.998;4.502;2023-01-24T06:48:41;46.20;;;29.08;;
37091;SDS011;23005;51.998;4.502;2023-01-24T06:50:03;43.30;;;28.35;;
37091;SDS011;23005;51.998;4.502;2023-01-24T06:51:24;44.17;;;27.88;;
37091;SDS011;23005;51.998;4.502;2023-01-24T06:52:45;46.47;;;28.47;;
37091;SDS011;23005;51.998;4.502;2023-01-24T06:54:05;46.10;;;28.17;;
37091;SDS011;23005;51.998;4.502;2023-01-24T06:55:26;52.13;;;30.42;;
37091;SDS011;23005;51.998;4.502;2023-01-24T06:56:46;49.30;;;30.02;;
37091;SDS011;23005;51.998;4.502;2023-01-24T06:58:06;47.53;;;30.23;;
37091;SDS011;23005;51.998;4.502;2023-01-24T06:59:27;44.42;;;28.15;;
37091;SDS011;23005;51.998;4.502;2023-01-24T07:00:51;41.80;;;27.77;;
37091;SDS011;23005;51.998;4.502;2023-01-24T07:02:11;49.72;;;28.23;;
37091;SDS011;23005;51.998;4.502;2023-01-24T07:03:32;47.90;;;30.63;;
37091;SDS011;23005;51.998;4.502;2023-01-24T07:04:53;47.53;;;28.13;;
37091;SDS011;23005;51.998;4.502;2023-01-24T07:06:14;50.13;;;29.65;;
37091;SDS011;23005;51.998;4.502;2023-01-24T07:07:34;47.73;;;29.37;;
37091;SDS011;23005;51.998;4.502;2023-01-24T07:08:55;47.58;;;28.17;;
37091;SDS011;23005;51.998;4.502;2023-01-24T07:10:19;43.42;;;27.90;;
37091;SDS011;23005;51.998;4.502;2023-01-24T07:11:41;44.13;;;27.30;;
37091;SDS011;23005;51.998;4.502;2023-01-24T07:13:02;45.60;;;27.85;;
37091;SDS011;23005;51.998;4.502;2023-01-24T07:14:23;46.30;;;28.30;;
37091;SDS011;23005;51.998;4.502;2023-01-24T07:15:44;42.58;;;26.60;;
37091;SDS011;23005;51.998;4.502;2023-01-24T07:17:06;43.63;;;26.65;;
37091;SDS011;23005;51.998;4.502;2023-01-24T07:18:28;43.88;;;28.13;;
37091;SDS011;23005;51.998;4.502;2023-01-24T07:19:49;50.30;;;29.75;;
37091;SDS011;23005;51.998;4.502;2023-01-24T07:21:10;45.38;;;28.27;;
37091;SDS011;23005;51.998;4.502;2023-01-24T07:22:32;46.47;;;29.13;;
37091;SDS011;23005;51.998;4.502;2023-01-24T07:23:55;46.17;;;28.58;;
37091;SDS011;23005;51.998;4.502;2023-01-24T07:25:17;46.15;;;28.10;;
37091;SDS011;23005;51.998;4.502;2023-01-24T07:26:39;44.80;;;28.30;;
37091;SDS011;23005;51.998;4.502;2023-01-24T07:28:01;51.47;;;28.83;;
37091;SDS011;23005;51.998;4.502;2023-01-24T07:29:22;47.58;;;28.90;;
37091;SDS011;23005;51.998;4.502;2023-01-24T07:32:03;44.72;;;27.15;;
37091;SDS011;23005;51.998;4.502;2023-01-24T07:33:26;47.83;;;27.90;;
37091;SDS011;23005;51.998;4.502;2023-01-24T07:34:47;44.00;;;27.88;;
37091;SDS011;23005;51.998;4.502;2023-01-24T07:36:11;44.08;;;28.23;;
37091;SDS011;23005;51.998;4.502;2023-01-24T07:37:32;48.28;;;28.80;;
37091;SDS011;23005;51.998;4.502;2023-01-24T07:38:54;50.40;;;29.17;;
37091;SDS011;23005;51.998;4.502;2023-01-24T07:40:15;45.72;;;28.15;;
37091;SDS011;23005;51.998;4.502;2023-01-24T07:41:36;49.70;;;30.05;;
37091;SDS011;23005;51.998;4.502;2023-01-24T07:42:58;53.47;;;30.63;;
37091;SDS011;23005;51.998;4.502;2023-01-24T07:44:19;48.80;;;29.58;;
37091;SDS011;23005;51.998;4.502;2023-01-24T07:45:40;48.75;;;30.58;;
37091;SDS011;23005;51.998;4.502;2023-01-24T07:47:04;49.42;;;31.05;;
37091;SDS011;23005;51.998;4.502;2023-01-24T07:48:26;47.95;;;29.80;;
37091;SDS011;23005;51.998;4.502;2023-01-24T07:49:46;49.30;;;30.10;;
37091;SDS011;23005;51.998;4.502;2023-01-24T07:51:07;53.67;;;31.67;;
37091;SDS011;23005;51.998;4.502;2023-01-24T07:52:28;56.42;;;32.63;;
37091;SDS011;23005;51.998;4.502;2023-01-24T07:53:51;49.28;;;30.70;;
37091;SDS011;23005;51.998;4.502;2023-01-24T07:55:12;52.67;;;31.05;;
37091;SDS011;23005;51.998;4.502;2023-01-24T07:56:32;49.70;;;31.88;;
37091;SDS011;23005;51.998;4.502;2023-01-24T07:58:02;49.80;;;30.73;;
37091;SDS011;23005;51.998;4.502;2023-01-24T07:59:23;53.95;;;32.03;;
37091;SDS011;23005;51.998;4.502;2023-01-24T08:00:57;50.28;;;31.02;;
37091;SDS011;23005;51.998;4.502;2023-01-24T08:02:17;50.35;;;31.25;;
37091;SDS011;23005;51.998;4.502;2023-01-24T08:03:39;51.00;;;30.57;;
37091;SDS011;23005;51.998;4.502;2023-01-24T08:05:00;50.13;;;30.40;;